createdAt,value
2017-07-19T00:00:14.167Z,0
2017-07-19T00:00:40.319Z,0
2017-07-19T00:01:06.453Z,0
2017-07-19T00:01:32.546Z,0
2017-07-19T00:01:58.644Z,0
2017-07-19T00:02:24.832Z,0
2017-07-19T00:02:50.955Z,0
2017-07-19T00:03:17.097Z,0
2017-07-19T00:03:43.258Z,0
2017-07-19T00:04:09.383Z,0
2017-07-19T00:04:35.498Z,0
2017-07-19T00:05:01.660Z,0
2017-07-19T00:05:27.814Z,0
2017-07-19T00:05:53.943Z,0
2017-07-19T00:06:20.090Z,0
2017-07-19T00:06:46.279Z,0
2017-07-19T00:07:12.467Z,0
2017-07-19T00:07:38.592Z,0
2017-07-19T00:08:04.682Z,0
2017-07-19T00:08:30.891Z,0
2017-07-19T00:08:57.020Z,0
2017-07-19T00:09:23.157Z,0
2017-07-19T00:09:49.285Z,0
2017-07-19T00:10:15.421Z,0
2017-07-19T00:10:41.560Z,0
2017-07-19T00:11:07.706Z,0
2017-07-19T00:11:33.845Z,0
2017-07-19T00:11:59.985Z,0
2017-07-19T00:12:26.119Z,0
2017-07-19T00:12:52.256Z,0
2017-07-19T00:13:18.413Z,0
2017-07-19T00:13:44.550Z,0
2017-07-19T00:14:10.640Z,0
2017-07-19T00:14:36.792Z,0
2017-07-19T00:15:02.924Z,0
2017-07-19T00:15:29.094Z,0
2017-07-19T00:15:55.193Z,0
2017-07-19T00:16:21.327Z,0
2017-07-19T00:16:47.447Z,0
2017-07-19T00:17:13.639Z,0
2017-07-19T00:17:39.728Z,0
2017-07-19T00:18:05.855Z,0
2017-07-19T00:18:32.040Z,0
2017-07-19T00:18:58.107Z,0
2017-07-19T00:19:24.227Z,0
2017-07-19T00:19:50.362Z,0
2017-07-19T00:20:16.481Z,0
2017-07-19T00:20:42.620Z,0
2017-07-19T00:21:08.785Z,0
2017-07-19T00:21:34.912Z,0
2017-07-19T00:22:01.026Z,0
2017-07-19T00:22:27.158Z,0
2017-07-19T00:22:53.279Z,0
2017-07-19T00:23:19.465Z,0
2017-07-19T00:23:45.558Z,0
2017-07-19T00:24:11.697Z,0
2017-07-19T00:24:37.808Z,0
2017-07-19T00:25:03.983Z,0
2017-07-19T00:25:30.124Z,0
2017-07-19T00:25:56.257Z,0
2017-07-19T00:26:22.411Z,0
2017-07-19T00:26:48.572Z,0
2017-07-19T00:27:14.675Z,0
2017-07-19T00:27:40.809Z,0
2017-07-19T00:28:06.929Z,0
2017-07-19T00:28:33.100Z,0
2017-07-19T00:28:59.241Z,0
2017-07-19T00:29:25.350Z,0
2017-07-19T00:29:51.504Z,0
2017-07-19T00:30:17.646Z,0
2017-07-19T00:30:43.793Z,0
2017-07-19T00:31:09.902Z,0
2017-07-19T00:31:36.018Z,0
2017-07-19T00:32:02.170Z,0
2017-07-19T00:32:28.329Z,0
2017-07-19T00:32:54.449Z,0
2017-07-19T00:33:20.597Z,0
2017-07-19T00:33:46.729Z,0
2017-07-19T00:34:12.907Z,0
2017-07-19T00:34:39.023Z,0
2017-07-19T00:35:05.156Z,0
2017-07-19T00:35:31.278Z,0
2017-07-19T00:35:57.393Z,0
2017-07-19T00:36:23.525Z,0
2017-07-19T00:36:49.708Z,0
2017-07-19T00:37:15.848Z,0
2017-07-19T00:37:42.004Z,0
2017-07-19T00:38:08.112Z,0
2017-07-19T00:38:34.250Z,0
2017-07-19T00:39:00.397Z,0
2017-07-19T00:39:26.519Z,0
2017-07-19T00:39:52.677Z,0
2017-07-19T00:40:18.805Z,0
2017-07-19T00:40:44.947Z,0
2017-07-19T00:41:11.097Z,0
2017-07-19T00:41:37.256Z,0
2017-07-19T00:42:03.370Z,0
2017-07-19T00:42:29.546Z,0
2017-07-19T00:42:55.658Z,0
2017-07-19T00:43:21.822Z,0
2017-07-19T00:43:47.940Z,0
2017-07-19T00:44:14.103Z,0
2017-07-19T00:44:40.249Z,0
2017-07-19T00:45:06.437Z,0
2017-07-19T00:45:32.553Z,0
2017-07-19T00:45:58.679Z,0
2017-07-19T00:46:24.810Z,0
2017-07-19T00:46:50.923Z,0
2017-07-19T00:47:17.093Z,0
2017-07-19T00:47:43.201Z,0
2017-07-19T00:48:09.295Z,0
2017-07-19T00:48:35.438Z,0
2017-07-19T00:49:01.575Z,0
2017-07-19T00:49:27.726Z,0
2017-07-19T00:49:53.814Z,0
2017-07-19T00:50:19.944Z,0
2017-07-19T00:50:46.084Z,0
2017-07-19T00:51:12.220Z,0
2017-07-19T00:51:38.343Z,0
2017-07-19T00:52:04.457Z,0
2017-07-19T00:52:30.596Z,0
2017-07-19T00:52:56.693Z,0
2017-07-19T00:53:22.833Z,0
2017-07-19T00:53:48.939Z,0
2017-07-19T00:54:15.095Z,0
2017-07-19T00:54:41.235Z,0
2017-07-19T00:55:07.363Z,0
2017-07-19T00:55:33.470Z,0
2017-07-19T00:55:59.614Z,0
2017-07-19T00:56:25.739Z,0
2017-07-19T00:56:51.854Z,0
2017-07-19T00:57:17.987Z,0
2017-07-19T00:57:44.087Z,0
2017-07-19T00:58:10.228Z,0
2017-07-19T00:58:36.355Z,0
2017-07-19T00:59:02.518Z,0
2017-07-19T00:59:28.703Z,0
2017-07-19T00:59:54.853Z,0
2017-07-19T01:00:20.986Z,0
2017-07-19T01:00:47.077Z,0
2017-07-19T01:01:13.175Z,0
2017-07-19T01:01:39.272Z,0
2017-07-19T01:02:05.406Z,0
2017-07-19T01:02:31.571Z,0
2017-07-19T01:02:57.659Z,0
2017-07-19T01:03:23.809Z,0
2017-07-19T01:03:49.946Z,0
2017-07-19T01:04:16.112Z,0
2017-07-19T01:04:42.235Z,0
2017-07-19T01:05:08.343Z,0
2017-07-19T01:05:34.434Z,0
2017-07-19T01:06:00.551Z,0
2017-07-19T01:06:26.716Z,0
2017-07-19T01:06:52.812Z,0
2017-07-19T01:07:18.916Z,0
2017-07-19T01:07:45.008Z,0
2017-07-19T01:08:11.159Z,0
2017-07-19T01:08:37.318Z,0
2017-07-19T01:09:03.410Z,0
2017-07-19T01:09:29.550Z,0
2017-07-19T01:09:55.681Z,0
2017-07-19T01:10:21.778Z,0
2017-07-19T01:10:47.943Z,0
2017-07-19T01:11:14.049Z,0
2017-07-19T01:11:40.151Z,0
2017-07-19T01:12:06.318Z,0
2017-07-19T01:12:32.447Z,0
2017-07-19T01:12:58.537Z,0
2017-07-19T01:13:24.696Z,0
2017-07-19T01:13:50.817Z,0
2017-07-19T01:14:16.956Z,0
2017-07-19T01:14:43.086Z,0
2017-07-19T01:15:09.214Z,0
2017-07-19T01:15:35.314Z,0
2017-07-19T01:16:01.434Z,0
2017-07-19T01:16:27.622Z,0
2017-07-19T01:16:53.736Z,0
2017-07-19T01:17:19.859Z,0
2017-07-19T01:17:45.991Z,0
2017-07-19T01:18:12.159Z,0
2017-07-19T01:18:38.306Z,0
2017-07-19T01:19:04.436Z,0
2017-07-19T01:19:30.531Z,0
2017-07-19T01:19:56.624Z,0
2017-07-19T01:20:22.790Z,0
2017-07-19T01:20:48.914Z,0
2017-07-19T01:21:15.044Z,0
2017-07-19T01:21:41.160Z,0
2017-07-19T01:22:07.287Z,0
2017-07-19T01:22:33.403Z,0
2017-07-19T01:22:59.535Z,0
2017-07-19T01:23:25.695Z,0
2017-07-19T01:23:51.821Z,0
2017-07-19T01:24:18.001Z,0
2017-07-19T01:24:44.139Z,0
2017-07-19T01:25:10.243Z,0
2017-07-19T01:25:36.343Z,0
2017-07-19T01:26:02.459Z,0
2017-07-19T01:26:28.589Z,0
2017-07-19T01:26:54.695Z,0
2017-07-19T01:27:20.857Z,0
2017-07-19T01:27:46.986Z,0
2017-07-19T01:28:13.196Z,0
2017-07-19T01:28:39.337Z,0
2017-07-19T01:29:05.510Z,0
2017-07-19T01:29:31.689Z,0
2017-07-19T01:29:57.794Z,0
2017-07-19T01:30:23.956Z,0
2017-07-19T01:30:50.091Z,0
2017-07-19T01:31:16.174Z,0
2017-07-19T01:31:42.332Z,0
2017-07-19T01:32:08.474Z,0
2017-07-19T01:32:34.594Z,0
2017-07-19T01:33:00.701Z,0
2017-07-19T01:33:26.823Z,0
2017-07-19T01:33:52.964Z,0
2017-07-19T01:34:19.124Z,0
2017-07-19T01:34:45.223Z,0
2017-07-19T01:35:11.379Z,0
2017-07-19T01:35:37.527Z,0
2017-07-19T01:36:03.648Z,0
2017-07-19T01:36:29.786Z,0
2017-07-19T01:36:55.905Z,0
2017-07-19T01:37:22.044Z,0
2017-07-19T01:37:48.180Z,0
2017-07-19T01:38:14.330Z,0
2017-07-19T01:38:40.421Z,0
2017-07-19T01:39:06.581Z,0
2017-07-19T01:39:32.681Z,0
2017-07-19T01:39:58.846Z,0
2017-07-19T01:40:24.972Z,0
2017-07-19T01:40:51.113Z,0
2017-07-19T01:41:17.252Z,0
2017-07-19T01:41:43.379Z,0
2017-07-19T01:42:09.519Z,0
2017-07-19T01:42:35.628Z,0
2017-07-19T01:43:01.840Z,0
2017-07-19T01:43:27.958Z,0
2017-07-19T01:43:54.130Z,0
2017-07-19T01:44:20.294Z,0
2017-07-19T01:44:46.404Z,0
2017-07-19T01:45:12.527Z,0
2017-07-19T01:45:38.663Z,0
2017-07-19T01:46:04.805Z,0
2017-07-19T01:46:30.932Z,0
2017-07-19T01:46:57.071Z,0
2017-07-19T01:47:23.250Z,0
2017-07-19T01:47:49.469Z,0
2017-07-19T01:48:15.583Z,0
2017-07-19T01:48:41.706Z,0
2017-07-19T01:49:07.868Z,0
2017-07-19T01:49:34.042Z,0
2017-07-19T01:50:00.139Z,0
2017-07-19T01:50:26.273Z,0
2017-07-19T01:50:52.420Z,0
2017-07-19T01:51:18.535Z,0
2017-07-19T01:51:44.667Z,0
2017-07-19T01:52:10.793Z,0
2017-07-19T01:52:36.928Z,0
2017-07-19T01:53:03.020Z,0
2017-07-19T01:53:29.166Z,0
2017-07-19T01:53:55.298Z,0
2017-07-19T01:54:21.453Z,0
2017-07-19T01:54:47.591Z,0
2017-07-19T01:55:13.729Z,0
2017-07-19T01:55:39.906Z,0
2017-07-19T01:56:06.073Z,0
2017-07-19T01:56:32.258Z,0
2017-07-19T01:56:58.359Z,0
2017-07-19T01:57:24.483Z,0
2017-07-19T01:57:50.604Z,0
2017-07-19T01:58:16.766Z,0
2017-07-19T01:58:42.931Z,0
2017-07-19T01:59:09.051Z,0
2017-07-19T01:59:35.167Z,0
2017-07-19T02:00:01.301Z,0
2017-07-19T02:00:27.456Z,0
2017-07-19T02:00:53.595Z,0
2017-07-19T02:01:19.724Z,0
2017-07-19T02:01:45.884Z,0
2017-07-19T02:02:11.972Z,0
2017-07-19T02:02:38.128Z,0
2017-07-19T02:03:04.283Z,0
2017-07-19T02:03:30.427Z,0
2017-07-19T02:03:56.548Z,0
2017-07-19T02:04:22.708Z,0
2017-07-19T02:04:48.861Z,0
2017-07-19T02:05:14.952Z,0
2017-07-19T02:05:41.089Z,0
2017-07-19T02:06:07.208Z,0
2017-07-19T02:06:33.374Z,0
2017-07-19T02:06:59.541Z,0
2017-07-19T02:07:25.662Z,0
2017-07-19T02:07:51.777Z,0
2017-07-19T02:08:17.909Z,0
2017-07-19T02:08:44.028Z,0
2017-07-19T02:09:10.136Z,0
2017-07-19T02:09:36.232Z,0
2017-07-19T02:10:02.374Z,0
2017-07-19T02:10:28.553Z,0
2017-07-19T02:10:54.652Z,0
2017-07-19T02:11:20.767Z,0
2017-07-19T02:11:46.895Z,0
2017-07-19T02:12:13.029Z,0
2017-07-19T02:12:39.118Z,0
2017-07-19T02:13:05.269Z,0
2017-07-19T02:13:31.405Z,0
2017-07-19T02:13:57.522Z,0
2017-07-19T02:14:23.651Z,0
2017-07-19T02:14:49.791Z,0
2017-07-19T02:15:15.925Z,0
2017-07-19T02:15:42.085Z,0
2017-07-19T02:16:08.200Z,0
2017-07-19T02:16:34.372Z,0
2017-07-19T02:17:00.534Z,0
2017-07-19T02:17:26.626Z,0
2017-07-19T02:17:52.746Z,0
2017-07-19T02:18:18.851Z,0
2017-07-19T02:18:44.971Z,0
2017-07-19T02:19:11.086Z,0
2017-07-19T02:19:37.222Z,0
2017-07-19T02:20:03.338Z,0
2017-07-19T02:20:29.476Z,0
2017-07-19T02:20:55.619Z,0
2017-07-19T02:21:21.758Z,0
2017-07-19T02:21:47.902Z,0
2017-07-19T02:22:14.024Z,0
2017-07-19T02:22:40.164Z,0
2017-07-19T02:23:06.354Z,0
2017-07-19T02:23:32.483Z,0
2017-07-19T02:23:58.596Z,0
2017-07-19T02:24:24.699Z,0
2017-07-19T02:24:50.826Z,0
2017-07-19T02:25:16.981Z,0
2017-07-19T02:25:43.071Z,0
2017-07-19T02:26:09.164Z,0
2017-07-19T02:26:35.295Z,0
2017-07-19T02:27:01.416Z,0
2017-07-19T02:27:27.532Z,0
2017-07-19T02:27:53.667Z,0
2017-07-19T02:28:19.794Z,0
2017-07-19T02:28:45.886Z,0
2017-07-19T02:29:12.016Z,0
2017-07-19T02:29:38.205Z,0
2017-07-19T02:30:04.342Z,0
2017-07-19T02:30:30.491Z,0
2017-07-19T02:30:56.663Z,0
2017-07-19T02:31:22.820Z,0
2017-07-19T02:31:48.977Z,0
2017-07-19T02:32:15.123Z,0
2017-07-19T02:32:41.240Z,0
2017-07-19T02:33:07.375Z,0
2017-07-19T02:33:33.513Z,0
2017-07-19T02:33:59.635Z,0
2017-07-19T02:34:25.850Z,0
2017-07-19T02:34:51.991Z,0
2017-07-19T02:35:18.112Z,0
2017-07-19T02:35:44.275Z,0
2017-07-19T02:36:10.425Z,0
2017-07-19T02:36:36.532Z,0
2017-07-19T02:37:02.671Z,0
2017-07-19T02:37:28.799Z,0
2017-07-19T02:37:54.936Z,0
2017-07-19T02:38:21.074Z,0
2017-07-19T02:38:47.247Z,0
2017-07-19T02:39:13.466Z,0
2017-07-19T02:39:39.589Z,0
2017-07-19T02:40:05.754Z,0
2017-07-19T02:40:31.920Z,0
2017-07-19T02:40:58.049Z,0
2017-07-19T02:41:24.209Z,0
2017-07-19T02:41:50.394Z,0
2017-07-19T02:42:16.588Z,0
2017-07-19T02:42:42.721Z,0
2017-07-19T02:43:08.867Z,0
2017-07-19T02:43:35.007Z,0
2017-07-19T02:44:01.146Z,0
2017-07-19T02:44:27.267Z,0
2017-07-19T02:44:53.383Z,0
2017-07-19T02:45:19.545Z,0
2017-07-19T02:45:45.673Z,0
2017-07-19T02:46:11.814Z,0
2017-07-19T02:46:37.968Z,0
2017-07-19T02:47:04.102Z,0
2017-07-19T02:47:30.214Z,0
2017-07-19T02:47:56.364Z,0
2017-07-19T02:48:22.554Z,0
2017-07-19T02:48:48.668Z,0
2017-07-19T02:49:14.838Z,0
2017-07-19T02:49:40.973Z,0
2017-07-19T02:50:07.216Z,0
2017-07-19T02:50:33.303Z,0
2017-07-19T02:50:59.413Z,0
2017-07-19T02:51:25.563Z,0
2017-07-19T02:51:51.727Z,0
2017-07-19T02:52:17.890Z,0
2017-07-19T02:52:43.992Z,0
2017-07-19T02:53:10.168Z,0
2017-07-19T02:53:36.321Z,0
2017-07-19T02:54:02.456Z,0
2017-07-19T02:54:28.566Z,0
2017-07-19T02:54:54.690Z,0
2017-07-19T02:55:20.806Z,0
2017-07-19T02:55:46.939Z,0
2017-07-19T02:56:13.068Z,0
2017-07-19T02:56:39.204Z,0
2017-07-19T02:57:05.337Z,0
2017-07-19T02:57:31.443Z,0
2017-07-19T02:57:57.554Z,0
2017-07-19T02:58:23.729Z,0
2017-07-19T02:58:49.821Z,0
2017-07-19T02:59:15.929Z,0
2017-07-19T02:59:42.085Z,0
2017-07-19T03:00:08.224Z,0
2017-07-19T03:00:34.380Z,0
2017-07-19T03:01:00.569Z,0
2017-07-19T03:01:26.681Z,0
2017-07-19T03:01:52.859Z,0
2017-07-19T03:02:19.075Z,0
2017-07-19T03:02:45.193Z,0
2017-07-19T03:03:11.341Z,0
2017-07-19T03:03:37.505Z,0
2017-07-19T03:04:03.706Z,0
2017-07-19T03:04:29.886Z,0
2017-07-19T03:04:56.050Z,0
2017-07-19T03:05:22.176Z,0
2017-07-19T03:05:48.338Z,0
2017-07-19T03:06:14.484Z,0
2017-07-19T03:06:40.678Z,0
2017-07-19T03:07:06.814Z,0
2017-07-19T03:07:32.960Z,0
2017-07-19T03:07:59.077Z,0
2017-07-19T03:08:25.187Z,0
2017-07-19T03:08:51.363Z,0
2017-07-19T03:09:17.501Z,0
2017-07-19T03:09:43.607Z,0
2017-07-19T03:10:09.700Z,0
2017-07-19T03:10:35.807Z,0
2017-07-19T03:11:01.927Z,0
2017-07-19T03:11:28.067Z,0
2017-07-19T03:11:54.226Z,0
2017-07-19T03:12:20.348Z,0
2017-07-19T03:12:46.439Z,0
2017-07-19T03:13:12.546Z,0
2017-07-19T03:13:38.646Z,0
2017-07-19T03:14:04.786Z,0
2017-07-19T03:14:30.966Z,0
2017-07-19T03:14:57.101Z,0
2017-07-19T03:15:23.273Z,0
2017-07-19T03:15:49.370Z,0
2017-07-19T03:16:15.461Z,0
2017-07-19T03:16:41.593Z,0
2017-07-19T03:17:07.751Z,0
2017-07-19T03:17:33.912Z,0
2017-07-19T03:18:00.063Z,0
2017-07-19T03:18:26.248Z,0
2017-07-19T03:18:52.384Z,0
2017-07-19T03:19:18.561Z,0
2017-07-19T03:19:44.721Z,0
2017-07-19T03:20:10.858Z,0
2017-07-19T03:20:36.980Z,0
2017-07-19T03:21:03.103Z,0
2017-07-19T03:21:29.232Z,0
2017-07-19T03:21:55.396Z,0
2017-07-19T03:22:21.508Z,5
2017-07-19T03:22:47.687Z,5
2017-07-19T03:23:13.821Z,5
2017-07-19T03:23:39.938Z,5
2017-07-19T03:24:06.036Z,5
2017-07-19T03:24:32.142Z,5
2017-07-19T03:24:58.235Z,5
2017-07-19T03:25:24.375Z,5
2017-07-19T03:25:50.514Z,5
2017-07-19T03:26:16.673Z,5
2017-07-19T03:26:42.791Z,5
2017-07-19T03:27:08.909Z,5
2017-07-19T03:27:35.067Z,5
2017-07-19T03:28:01.254Z,5
2017-07-19T03:28:27.374Z,5
2017-07-19T03:28:53.540Z,5
2017-07-19T03:29:19.705Z,5
2017-07-19T03:29:45.856Z,5
2017-07-19T03:30:11.995Z,5
2017-07-19T03:30:38.153Z,5
2017-07-19T03:31:04.280Z,5
2017-07-19T03:31:30.444Z,5
2017-07-19T03:31:56.575Z,10
2017-07-19T03:32:22.732Z,10
2017-07-19T03:32:48.871Z,10
2017-07-19T03:33:15.020Z,10
2017-07-19T03:33:41.234Z,10
2017-07-19T03:34:07.374Z,10
2017-07-19T03:34:33.469Z,10
2017-07-19T03:34:59.602Z,10
2017-07-19T03:35:25.725Z,10
2017-07-19T03:35:51.836Z,10
2017-07-19T03:36:18.029Z,10
2017-07-19T03:36:44.224Z,10
2017-07-19T03:37:10.363Z,10
2017-07-19T03:37:36.497Z,15
2017-07-19T03:38:02.668Z,15
2017-07-19T03:38:28.802Z,15
2017-07-19T03:38:54.975Z,15
2017-07-19T03:39:21.114Z,15
2017-07-19T03:39:47.226Z,15
2017-07-19T03:40:13.401Z,15
2017-07-19T03:40:39.540Z,15
2017-07-19T03:41:05.674Z,15
2017-07-19T03:41:31.773Z,15
2017-07-19T03:41:57.914Z,15
2017-07-19T03:42:24.020Z,20
2017-07-19T03:42:50.198Z,20
2017-07-19T03:43:16.326Z,20
2017-07-19T03:43:42.447Z,20
2017-07-19T03:44:08.565Z,20
2017-07-19T03:44:34.693Z,20
2017-07-19T03:45:00.822Z,20
2017-07-19T03:45:27.012Z,20
2017-07-19T03:45:53.114Z,20
2017-07-19T03:46:19.220Z,20
2017-07-19T03:46:45.307Z,25
2017-07-19T03:47:11.431Z,25
2017-07-19T03:47:37.591Z,25
2017-07-19T03:48:03.709Z,25
2017-07-19T03:48:29.856Z,25
2017-07-19T03:48:55.982Z,25
2017-07-19T03:49:22.111Z,25
2017-07-19T03:49:48.243Z,25
2017-07-19T03:50:14.378Z,30
2017-07-19T03:50:40.476Z,30
2017-07-19T03:51:06.584Z,30
2017-07-19T03:51:32.728Z,30
2017-07-19T03:51:59.056Z,30
2017-07-19T03:52:25.185Z,30
2017-07-19T03:52:51.360Z,30
2017-07-19T03:53:17.547Z,35
2017-07-19T03:53:43.709Z,35
2017-07-19T03:54:09.860Z,35
2017-07-19T03:54:35.964Z,35
2017-07-19T03:55:02.084Z,35
2017-07-19T03:55:28.253Z,35
2017-07-19T03:55:54.416Z,35
2017-07-19T03:56:20.592Z,40
2017-07-19T03:56:46.730Z,40
2017-07-19T03:57:12.865Z,40
2017-07-19T03:57:38.988Z,40
2017-07-19T03:58:05.104Z,40
2017-07-19T03:58:31.286Z,45
2017-07-19T03:58:57.467Z,45
2017-07-19T03:59:23.606Z,45
2017-07-19T03:59:49.763Z,45
2017-07-19T04:00:15.901Z,45
2017-07-19T04:00:42.093Z,50
2017-07-19T04:01:08.270Z,50
2017-07-19T04:01:34.409Z,50
2017-07-19T04:02:00.539Z,50
2017-07-19T04:02:26.695Z,50
2017-07-19T04:02:52.811Z,55
2017-07-19T04:03:18.913Z,55
2017-07-19T04:03:45.051Z,55
2017-07-19T04:04:11.165Z,55
2017-07-19T04:04:37.310Z,55
2017-07-19T04:05:03.446Z,55
2017-07-19T04:05:29.613Z,60
2017-07-19T04:05:55.743Z,60
2017-07-19T04:06:21.883Z,60
2017-07-19T04:06:48.065Z,60
2017-07-19T04:07:14.228Z,60
2017-07-19T04:07:40.343Z,60
2017-07-19T04:08:06.519Z,60
2017-07-19T04:08:32.707Z,65
2017-07-19T04:08:58.847Z,65
2017-07-19T04:09:24.994Z,65
2017-07-19T04:09:51.157Z,65
2017-07-19T04:10:17.308Z,65
2017-07-19T04:10:43.448Z,65
2017-07-19T04:11:09.556Z,70
2017-07-19T04:11:35.687Z,70
2017-07-19T04:12:01.847Z,70
2017-07-19T04:12:27.994Z,70
2017-07-19T04:12:54.139Z,70
2017-07-19T04:13:20.325Z,75
2017-07-19T04:13:46.478Z,75
2017-07-19T04:14:12.593Z,75
2017-07-19T04:14:38.730Z,75
2017-07-19T04:15:04.856Z,80
2017-07-19T04:15:30.973Z,80
2017-07-19T04:15:57.106Z,80
2017-07-19T04:16:23.261Z,80
2017-07-19T04:16:49.403Z,80
2017-07-19T04:17:15.565Z,80
2017-07-19T04:17:41.752Z,80
2017-07-19T04:18:07.888Z,80
2017-07-19T04:18:33.985Z,80
2017-07-19T04:19:00.120Z,85
2017-07-19T04:19:26.212Z,90
2017-07-19T04:19:52.310Z,85
2017-07-19T04:20:18.444Z,85
2017-07-19T04:20:44.593Z,90
2017-07-19T04:21:10.706Z,90
2017-07-19T04:21:36.867Z,90
2017-07-19T04:22:03.014Z,90
2017-07-19T04:22:29.192Z,90
2017-07-19T04:22:55.308Z,95
2017-07-19T04:23:21.455Z,95
2017-07-19T04:23:47.615Z,95
2017-07-19T04:24:13.783Z,100
2017-07-19T04:24:39.923Z,95
2017-07-19T04:25:06.064Z,95
2017-07-19T04:25:32.212Z,100
2017-07-19T04:25:58.330Z,100
2017-07-19T04:26:24.488Z,100
2017-07-19T04:26:50.616Z,100
2017-07-19T04:27:16.756Z,100
2017-07-19T04:27:42.861Z,100
2017-07-19T04:28:09.030Z,100
2017-07-19T04:28:35.191Z,100
2017-07-19T04:29:01.319Z,100
2017-07-19T04:29:27.455Z,100
2017-07-19T04:29:53.587Z,100
2017-07-19T04:30:19.739Z,100
2017-07-19T04:30:45.902Z,105
2017-07-19T04:31:12.052Z,105
2017-07-19T04:31:38.192Z,105
2017-07-19T04:32:04.300Z,105
2017-07-19T04:32:30.424Z,105
2017-07-19T04:32:56.559Z,105
2017-07-19T04:33:22.706Z,105
2017-07-19T04:33:48.887Z,110
2017-07-19T04:34:15.001Z,110
2017-07-19T04:34:41.107Z,110
2017-07-19T04:35:07.266Z,110
2017-07-19T04:35:33.352Z,115
2017-07-19T04:35:59.477Z,115
2017-07-19T04:36:25.664Z,115
2017-07-19T04:36:51.884Z,115
2017-07-19T04:37:18.033Z,115
2017-07-19T04:37:44.189Z,115
2017-07-19T04:38:10.338Z,115
2017-07-19T04:38:36.499Z,120
2017-07-19T04:39:02.601Z,120
2017-07-19T04:39:28.752Z,120
2017-07-19T04:39:54.913Z,125
2017-07-19T04:40:21.032Z,120
2017-07-19T04:40:47.154Z,125
2017-07-19T04:41:13.315Z,125
2017-07-19T04:41:39.468Z,125
2017-07-19T04:42:05.607Z,125
2017-07-19T04:42:31.772Z,125
2017-07-19T04:42:57.896Z,125
2017-07-19T04:43:24.011Z,125
2017-07-19T04:43:50.116Z,130
2017-07-19T04:44:16.220Z,130
2017-07-19T04:44:42.344Z,130
2017-07-19T04:45:08.465Z,130
2017-07-19T04:45:34.632Z,135
2017-07-19T04:46:00.795Z,135
2017-07-19T04:46:26.919Z,140
2017-07-19T04:46:53.012Z,140
2017-07-19T04:47:19.144Z,145
2017-07-19T04:47:45.301Z,145
2017-07-19T04:48:11.418Z,150
2017-07-19T04:48:37.571Z,150
2017-07-19T04:49:03.707Z,150
2017-07-19T04:49:29.849Z,155
2017-07-19T04:49:56.004Z,155
2017-07-19T04:50:22.150Z,160
2017-07-19T04:50:48.314Z,160
2017-07-19T04:51:14.438Z,165
2017-07-19T04:51:40.557Z,165
2017-07-19T04:52:06.707Z,165
2017-07-19T04:52:32.842Z,170
2017-07-19T04:52:59.006Z,170
2017-07-19T04:53:25.154Z,175
2017-07-19T04:53:51.317Z,180
2017-07-19T04:54:17.483Z,185
2017-07-19T04:54:43.603Z,200
2017-07-19T04:55:09.737Z,215
2017-07-19T04:55:35.884Z,235
2017-07-19T04:56:01.991Z,235
2017-07-19T04:56:28.130Z,235
2017-07-19T04:56:54.280Z,225
2017-07-19T04:57:20.386Z,215
2017-07-19T04:57:46.509Z,210
2017-07-19T04:58:12.650Z,210
2017-07-19T04:58:38.814Z,210
2017-07-19T04:59:04.932Z,210
2017-07-19T04:59:31.071Z,210
2017-07-19T04:59:57.210Z,210
2017-07-19T05:00:23.385Z,210
2017-07-19T05:00:49.523Z,210
2017-07-19T05:01:15.681Z,210
2017-07-19T05:01:41.864Z,210
2017-07-19T05:02:08.003Z,210
2017-07-19T05:02:34.218Z,210
2017-07-19T05:03:00.395Z,210
2017-07-19T05:03:26.482Z,210
2017-07-19T05:03:52.587Z,210
2017-07-19T05:04:18.743Z,215
2017-07-19T05:04:44.862Z,215
2017-07-19T05:05:10.984Z,215
2017-07-19T05:05:37.118Z,215
2017-07-19T05:06:03.324Z,215
2017-07-19T05:06:29.468Z,215
2017-07-19T05:06:55.571Z,220
2017-07-19T05:07:21.725Z,220
2017-07-19T05:07:47.886Z,220
2017-07-19T05:08:13.978Z,220
2017-07-19T05:08:40.101Z,225
2017-07-19T05:09:06.207Z,225
2017-07-19T05:09:32.300Z,225
2017-07-19T05:09:58.439Z,225
2017-07-19T05:10:24.580Z,230
2017-07-19T05:10:50.729Z,230
2017-07-19T05:11:16.844Z,230
2017-07-19T05:11:42.979Z,230
2017-07-19T05:12:09.135Z,230
2017-07-19T05:12:35.239Z,235
2017-07-19T05:13:01.358Z,235
2017-07-19T05:13:27.472Z,235
2017-07-19T05:13:53.623Z,235
2017-07-19T05:14:19.734Z,235
2017-07-19T05:14:45.825Z,240
2017-07-19T05:15:11.984Z,240
2017-07-19T05:15:38.113Z,240
2017-07-19T05:16:04.252Z,245
2017-07-19T05:16:30.420Z,245
2017-07-19T05:16:56.597Z,245
2017-07-19T05:17:22.824Z,245
2017-07-19T05:17:48.976Z,245
2017-07-19T05:18:15.072Z,245
2017-07-19T05:18:41.206Z,245
2017-07-19T05:19:07.358Z,245
2017-07-19T05:19:33.476Z,245
2017-07-19T05:19:59.604Z,245
2017-07-19T05:20:25.711Z,245
2017-07-19T05:20:51.828Z,245
2017-07-19T05:21:17.951Z,245
2017-07-19T05:21:44.059Z,250
2017-07-19T05:22:10.149Z,250
2017-07-19T05:22:36.270Z,250
2017-07-19T05:23:02.378Z,255
2017-07-19T05:23:28.554Z,255
2017-07-19T05:23:54.695Z,255
2017-07-19T05:24:20.832Z,255
2017-07-19T05:24:46.929Z,260
2017-07-19T05:25:13.069Z,260
2017-07-19T05:25:39.201Z,260
2017-07-19T05:26:05.357Z,265
2017-07-19T05:26:31.472Z,265
2017-07-19T05:26:57.601Z,265
2017-07-19T05:27:23.785Z,270
2017-07-19T05:27:49.925Z,275
2017-07-19T05:28:16.099Z,270
2017-07-19T05:28:42.213Z,270
2017-07-19T05:29:08.374Z,270
2017-07-19T05:29:34.524Z,275
2017-07-19T05:30:00.639Z,275
2017-07-19T05:30:26.772Z,280
2017-07-19T05:30:52.908Z,280
2017-07-19T05:31:19.019Z,285
2017-07-19T05:31:45.143Z,290
2017-07-19T05:32:11.280Z,290
2017-07-19T05:32:37.417Z,295
2017-07-19T05:33:03.564Z,295
2017-07-19T05:33:29.671Z,300
2017-07-19T05:33:55.789Z,300
2017-07-19T05:34:21.929Z,305
2017-07-19T05:34:48.034Z,305
2017-07-19T05:35:14.158Z,310
2017-07-19T05:35:40.330Z,315
2017-07-19T05:36:06.446Z,320
2017-07-19T05:36:32.539Z,330
2017-07-19T05:36:58.646Z,330
2017-07-19T05:37:24.741Z,335
2017-07-19T05:37:50.856Z,335
2017-07-19T05:38:17.044Z,335
2017-07-19T05:38:43.170Z,335
2017-07-19T05:39:09.314Z,340
2017-07-19T05:39:35.445Z,340
2017-07-19T05:40:01.601Z,340
2017-07-19T05:40:27.782Z,345
2017-07-19T05:40:53.907Z,345
2017-07-19T05:41:20.044Z,340
2017-07-19T05:41:46.264Z,340
2017-07-19T05:42:12.418Z,340
2017-07-19T05:42:38.561Z,340
2017-07-19T05:43:04.750Z,340
2017-07-19T05:43:30.933Z,335
2017-07-19T05:43:57.075Z,330
2017-07-19T05:44:23.255Z,325
2017-07-19T05:44:49.421Z,325
2017-07-19T05:45:15.583Z,320
2017-07-19T05:45:41.709Z,315
2017-07-19T05:46:07.846Z,315
2017-07-19T05:46:34.014Z,320
2017-07-19T05:47:00.198Z,325
2017-07-19T05:47:26.336Z,325
2017-07-19T05:47:52.479Z,330
2017-07-19T05:48:18.622Z,335
2017-07-19T05:48:44.761Z,340
2017-07-19T05:49:10.910Z,340
2017-07-19T05:49:37.051Z,340
2017-07-19T05:50:03.235Z,335
2017-07-19T05:50:29.361Z,335
2017-07-19T05:50:55.499Z,330
2017-07-19T05:51:21.627Z,330
2017-07-19T05:51:47.793Z,335
2017-07-19T05:52:13.936Z,330
2017-07-19T05:52:40.036Z,325
2017-07-19T05:53:06.173Z,325
2017-07-19T05:53:32.280Z,325
2017-07-19T05:53:58.411Z,320
2017-07-19T05:54:24.550Z,320
2017-07-19T05:54:50.654Z,315
2017-07-19T05:55:16.818Z,315
2017-07-19T05:55:42.959Z,310
2017-07-19T05:56:09.109Z,310
2017-07-19T05:56:35.398Z,315
2017-07-19T05:57:01.569Z,310
2017-07-19T05:57:27.699Z,310
2017-07-19T05:57:53.790Z,310
2017-07-19T05:58:19.920Z,310
2017-07-19T05:58:46.083Z,315
2017-07-19T05:59:12.184Z,315
2017-07-19T05:59:38.312Z,320
2017-07-19T06:00:04.475Z,320
2017-07-19T06:00:30.668Z,325
2017-07-19T06:00:56.816Z,320
2017-07-19T06:01:23.007Z,325
2017-07-19T06:01:49.152Z,330
2017-07-19T06:02:15.291Z,330
2017-07-19T06:02:41.395Z,335
2017-07-19T06:03:07.525Z,340
2017-07-19T06:03:33.684Z,345
2017-07-19T06:03:59.853Z,345
2017-07-19T06:04:25.978Z,345
2017-07-19T06:04:52.138Z,350
2017-07-19T06:05:18.343Z,355
2017-07-19T06:05:44.482Z,360
2017-07-19T06:06:10.617Z,360
2017-07-19T06:06:36.744Z,365
2017-07-19T06:07:02.835Z,365
2017-07-19T06:07:28.996Z,365
2017-07-19T06:07:55.153Z,365
2017-07-19T06:08:21.280Z,365
2017-07-19T06:08:47.371Z,365
2017-07-19T06:09:13.487Z,365
2017-07-19T06:09:39.653Z,370
2017-07-19T06:10:05.752Z,370
2017-07-19T06:10:31.892Z,375
2017-07-19T06:10:58.028Z,375
2017-07-19T06:11:24.158Z,375
2017-07-19T06:11:50.297Z,375
2017-07-19T06:12:16.452Z,375
2017-07-19T06:12:42.612Z,380
2017-07-19T06:13:08.747Z,380
2017-07-19T06:13:34.874Z,380
2017-07-19T06:14:00.968Z,385
2017-07-19T06:14:27.129Z,385
2017-07-19T06:14:53.287Z,390
2017-07-19T06:15:19.378Z,390
2017-07-19T06:15:45.504Z,390
2017-07-19T06:16:11.724Z,395